createdAt,value
2019-02-03T00:01:34.336Z,2.00
2019-02-03T00:04:04.350Z,2.00
2019-02-03T00:06:32.997Z,2.00
2019-02-03T00:09:02.024Z,2.10
2019-02-03T00:11:30.566Z,2.10
2019-02-03T00:13:59.476Z,2.00
2019-02-03T00:16:27.935Z,2.00
2019-02-03T00:18:56.878Z,2.00
2019-02-03T00:21:25.774Z,2.00
2019-02-03T00:23:54.293Z,2.00
2019-02-03T00:26:23.014Z,2.10
2019-02-03T00:28:51.775Z,2.10
2019-02-03T00:31:20.298Z,2.10
2019-02-03T00:33:49.064Z,2.20
2019-02-03T00:36:17.980Z,2.20
2019-02-03T00:38:46.794Z,2.20
2019-02-03T00:41:15.321Z,2.30
2019-02-03T00:43:44.054Z,2.30
2019-02-03T00:46:12.836Z,2.30
2019-02-03T00:48:41.698Z,2.20
2019-02-03T00:51:10.510Z,2.20
2019-02-03T00:53:39.036Z,2.10
2019-02-03T00:56:07.580Z,2.10
2019-02-03T00:58:36.040Z,2.10
2019-02-03T01:01:05.907Z,2.10
2019-02-03T01:03:34.496Z,2.00
2019-02-03T01:06:03.102Z,2.00
2019-02-03T01:08:31.561Z,2.00
2019-02-03T01:11:00.360Z,2.00
2019-02-03T01:13:29.167Z,2.00
2019-02-03T01:15:58.137Z,2.00
2019-02-03T01:18:27.325Z,2.00
2019-02-03T01:20:56.112Z,2.10
2019-02-03T01:23:24.933Z,2.10
2019-02-03T01:25:53.495Z,2.10
2019-02-03T01:28:22.366Z,2.00
2019-02-03T01:30:50.844Z,2.10
2019-02-03T01:33:21.208Z,2.10
2019-02-03T01:35:49.952Z,2.00
2019-02-03T01:38:18.767Z,2.00
2019-02-03T01:40:47.533Z,1.90
2019-02-03T01:43:18.390Z,1.90
2019-02-03T01:45:47.155Z,1.80
2019-02-03T01:48:15.939Z,1.80
2019-02-03T01:50:45.853Z,1.80
2019-02-03T01:53:14.435Z,1.80
2019-02-03T01:55:45.818Z,1.80
2019-02-03T01:58:14.658Z,1.80
2019-02-03T02:00:43.888Z,1.80
2019-02-03T02:03:12.758Z,1.80
2019-02-03T02:05:41.569Z,1.90
2019-02-03T02:08:10.361Z,1.90
2019-02-03T02:10:39.236Z,1.90
2019-02-03T02:13:07.688Z,2.00
2019-02-03T02:15:36.531Z,2.00
2019-02-03T02:18:05.388Z,2.00
2019-02-03T02:20:34.162Z,1.90
2019-02-03T02:23:03.079Z,1.90
2019-02-03T02:25:34.824Z,1.80
2019-02-03T02:28:03.746Z,1.70
2019-02-03T02:30:32.564Z,1.70
2019-02-03T02:33:01.397Z,1.60
2019-02-03T02:35:30.181Z,1.60
2019-02-03T02:38:06.274Z,1.60
2019-02-03T02:40:29.551Z,1.60
2019-02-03T02:42:58.390Z,1.50
2019-02-03T02:45:26.942Z,1.50
2019-02-03T02:47:55.738Z,1.50
2019-02-03T02:50:29.837Z,1.50
2019-02-03T02:52:59.245Z,1.50
2019-02-03T02:55:28.143Z,1.50
2019-02-03T02:57:56.724Z,1.40
2019-02-03T03:00:26.896Z,1.40
2019-02-03T03:02:55.411Z,1.40
2019-02-03T03:05:24.213Z,1.40
2019-02-03T03:07:52.757Z,1.40
2019-02-03T03:10:22.106Z,1.40
2019-02-03T03:12:50.902Z,1.40
2019-02-03T03:15:21.419Z,1.40
2019-02-03T03:17:50.417Z,1.30
2019-02-03T03:20:21.800Z,1.30
2019-02-03T03:22:51.137Z,1.30
2019-02-03T03:25:21.897Z,1.20
2019-02-03T03:27:50.766Z,1.10
2019-02-03T03:30:25.140Z,1.10
2019-02-03T03:32:54.794Z,1.00
2019-02-03T03:35:24.549Z,1.00
2019-02-03T03:37:53.168Z,1.00
2019-02-03T03:40:24.945Z,0.90
2019-02-03T03:42:53.559Z,0.90
2019-02-03T03:45:23.818Z,0.80
2019-02-03T03:47:52.392Z,0.80
2019-02-03T03:50:20.836Z,0.80
2019-02-03T03:52:49.344Z,0.80
2019-02-03T03:55:18.192Z,0.80
2019-02-03T03:57:47.188Z,0.80
2019-02-03T04:00:18.281Z,0.90
2019-02-03T04:02:47.660Z,0.90
2019-02-03T04:05:16.302Z,0.90
2019-02-03T04:07:45.186Z,0.80
2019-02-03T04:10:20.759Z,0.80
2019-02-03T04:12:49.410Z,0.70
2019-02-03T04:15:19.857Z,0.70
2019-02-03T04:17:48.977Z,0.70
2019-02-03T04:20:20.485Z,0.70
2019-02-03T04:22:49.275Z,0.70
2019-02-03T04:25:17.801Z,0.70
2019-02-03T04:27:46.888Z,0.70
2019-02-03T04:30:21.037Z,0.70
2019-02-03T04:32:49.561Z,0.70
2019-02-03T04:35:18.293Z,0.70
2019-02-03T04:37:47.060Z,0.70
2019-02-03T04:40:18.457Z,0.70
2019-02-03T04:42:48.674Z,0.70
2019-02-03T04:45:18.615Z,0.60
2019-02-03T04:47:47.215Z,0.60
2019-02-03T04:50:21.056Z,0.60
2019-02-03T04:52:49.567Z,0.60
2019-02-03T04:55:20.794Z,0.50
2019-02-03T04:57:50.309Z,0.50
2019-02-03T05:00:23.827Z,0.50
2019-02-03T05:02:52.433Z,0.50
2019-02-03T05:05:21.506Z,0.40
2019-02-03T05:07:50.348Z,0.40
2019-02-03T05:10:19.601Z,0.50
2019-02-03T05:12:48.664Z,0.50
2019-02-03T05:15:19.812Z,0.40
2019-02-03T05:17:48.667Z,0.40
2019-02-03T05:20:19.393Z,0.40
2019-02-03T05:22:48.111Z,0.40
2019-02-03T05:25:16.672Z,0.30
2019-02-03T05:27:45.504Z,0.30
2019-02-03T05:30:19.560Z,0.30
2019-02-03T05:32:48.253Z,0.40
2019-02-03T05:35:17.256Z,0.40
2019-02-03T05:37:46.068Z,0.40
2019-02-03T05:40:16.789Z,0.50
2019-02-03T05:42:46.182Z,0.50
2019-02-03T05:45:17.117Z,0.50
2019-02-03T05:47:46.246Z,0.50
2019-02-03T05:50:17.801Z,0.50
2019-02-03T05:52:46.753Z,0.50
2019-02-03T05:55:16.230Z,0.50
2019-02-03T05:57:44.911Z,0.50
2019-02-03T06:00:23.382Z,0.60
2019-02-03T06:02:51.912Z,0.50
2019-02-03T06:05:20.465Z,0.50
2019-02-03T06:07:49.333Z,0.40
2019-02-03T06:10:18.717Z,0.40
2019-02-03T06:12:47.645Z,0.40
2019-02-03T06:15:16.642Z,0.40
2019-02-03T06:17:45.151Z,0.30
2019-02-03T06:20:24.517Z,0.20
2019-02-03T06:22:54.525Z,0.20
2019-02-03T06:25:23.031Z,0.20
2019-02-03T06:27:52.330Z,0.20
2019-02-03T06:30:24.306Z,0.20
2019-02-03T06:32:53.166Z,0.20
2019-02-03T06:35:21.708Z,0.10
2019-02-03T06:37:50.156Z,0.10
2019-02-03T06:40:19.685Z,0.10
2019-02-03T06:42:48.430Z,0.10
2019-02-03T06:45:24.401Z,0.10
2019-02-03T06:47:53.374Z,0.10
2019-02-03T06:50:21.819Z,0.00
2019-02-03T06:52:50.666Z,0.00
2019-02-03T06:55:19.529Z,0.00
2019-02-03T06:57:49.205Z,0.00
2019-02-03T07:00:17.883Z,0.00
2019-02-03T07:02:46.451Z,0.00
2019-02-03T07:05:15.198Z,-0.10
2019-02-03T07:07:44.189Z,-0.10
2019-02-03T07:10:13.047Z,-0.10
2019-02-03T07:12:41.832Z,-0.10
2019-02-03T07:15:11.566Z,-0.20
2019-02-03T07:17:40.121Z,-0.10
2019-02-03T07:20:14.326Z,-0.10
2019-02-03T07:22:42.859Z,-0.10
2019-02-03T07:25:11.894Z,-0.10
2019-02-03T07:27:40.477Z,-0.10
2019-02-03T07:30:15.002Z,-0.10
2019-02-03T07:32:43.542Z,-0.10
2019-02-03T07:35:12.713Z,-0.10
2019-02-03T07:37:41.347Z,-0.10
2019-02-03T07:40:18.228Z,-0.10
2019-02-03T07:42:46.825Z,-0.10
2019-02-03T07:45:15.500Z,0.00
2019-02-03T07:47:44.319Z,0.00
2019-02-03T07:50:17.924Z,0.10
2019-02-03T07:52:46.452Z,0.20
2019-02-03T07:55:15.822Z,0.30
2019-02-03T07:57:44.781Z,0.50
2019-02-03T08:00:15.652Z,0.80
2019-02-03T08:02:44.178Z,1.30
2019-02-03T08:05:13.382Z,1.80
2019-02-03T08:07:41.938Z,2.10
2019-02-03T08:10:24.619Z,2.40
2019-02-03T08:12:44.562Z,3.10
2019-02-03T08:15:17.524Z,4.20
2019-02-03T08:17:46.486Z,5.40
2019-02-03T08:20:18.094Z,6.40
2019-02-03T08:22:47.034Z,7.30
2019-02-03T08:25:17.282Z,8.00
2019-02-03T08:27:48.706Z,8.30
2019-02-03T08:30:23.277Z,7.80
2019-02-03T08:32:55.204Z,7.40
2019-02-03T08:35:24.229Z,8.00
2019-02-03T08:37:55.481Z,8.50
2019-02-03T08:40:36.150Z,9.00
2019-02-03T08:42:55.841Z,9.30
2019-02-03T08:45:25.330Z,9.40
2019-02-03T08:47:54.112Z,9.30
2019-02-03T08:50:24.517Z,9.00
2019-02-03T08:52:53.373Z,8.70
2019-02-03T08:55:23.578Z,8.90
2019-02-03T08:57:52.329Z,9.20
2019-02-03T09:00:26.412Z,8.90
2019-02-03T09:02:55.247Z,9.30
2019-02-03T09:05:24.047Z,10.30
2019-02-03T09:07:53.078Z,11.00
2019-02-03T09:10:23.381Z,11.00
2019-02-03T09:12:54.451Z,11.20
2019-02-03T09:15:27.739Z,11.00
2019-02-03T09:17:56.562Z,10.20
2019-02-03T09:20:32.620Z,9.50
2019-02-03T09:23:01.196Z,9.70
2019-02-03T09:25:29.717Z,9.90
2019-02-03T09:27:58.548Z,10.00
2019-02-03T09:30:30.413Z,9.90
2019-02-03T09:32:58.869Z,10.30
2019-02-03T09:35:27.439Z,10.30
2019-02-03T09:37:56.324Z,10.30
2019-02-03T09:40:27.398Z,10.10
2019-02-03T09:42:57.490Z,10.10
2019-02-03T09:45:26.826Z,10.30
2019-02-03T09:47:55.728Z,10.50
2019-02-03T09:50:31.493Z,10.30
2019-02-03T09:53:01.893Z,9.60
2019-02-03T09:55:32.307Z,9.20
2019-02-03T09:58:01.421Z,8.70
2019-02-03T10:00:33.092Z,8.50
2019-02-03T10:03:02.565Z,8.30
2019-02-03T10:05:31.091Z,8.20
2019-02-03T10:07:59.946Z,7.80
2019-02-03T10:10:31.062Z,7.60
2019-02-03T10:12:59.888Z,8.20
2019-02-03T10:15:29.102Z,8.60
2019-02-03T10:17:58.255Z,8.70
2019-02-03T10:20:26.936Z,8.60
2019-02-03T10:22:55.750Z,8.90
2019-02-03T10:25:28.692Z,9.60
2019-02-03T10:27:57.377Z,10.20
2019-02-03T10:30:27.604Z,9.90
2019-02-03T10:32:58.169Z,9.40
2019-02-03T10:35:31.901Z,9.00
2019-02-03T10:38:00.418Z,9.60
2019-02-03T10:40:31.768Z,10.80
2019-02-03T10:43:00.992Z,12.00
2019-02-03T10:45:30.275Z,12.50
2019-02-03T10:47:59.179Z,12.40
2019-02-03T10:50:32.776Z,12.60
2019-02-03T10:53:02.651Z,13.10
2019-02-03T10:55:31.582Z,13.60
2019-02-03T10:58:00.449Z,14.30
2019-02-03T11:00:32.514Z,15.10
2019-02-03T11:03:01.616Z,15.00
2019-02-03T11:05:36.025Z,14.30
2019-02-03T11:08:05.619Z,14.00
2019-02-03T11:10:34.542Z,13.90
2019-02-03T11:13:03.071Z,14.20
2019-02-03T11:15:31.860Z,14.40
2019-02-03T11:18:00.687Z,14.60
2019-02-03T11:20:32.064Z,14.60
2019-02-03T11:23:00.854Z,15.00
2019-02-03T11:25:31.038Z,15.20
2019-02-03T11:28:00.096Z,15.20
2019-02-03T11:30:30.207Z,15.80
2019-02-03T11:33:05.275Z,16.50
2019-02-03T11:35:31.978Z,16.50
2019-02-03T11:38:00.685Z,16.40
2019-02-03T11:40:34.648Z,16.50
2019-02-03T11:43:04.015Z,16.70
2019-02-03T11:45:38.234Z,17.30
2019-02-03T11:48:10.793Z,17.80
2019-02-03T11:50:41.556Z,18.40
2019-02-03T11:53:12.682Z,18.50
2019-02-03T11:55:41.302Z,17.90
2019-02-03T11:58:11.262Z,16.80
2019-02-03T12:00:40.246Z,16.10
2019-02-03T12:03:09.508Z,15.90
2019-02-03T12:05:38.256Z,15.80
2019-02-03T12:08:07.793Z,15.20
2019-02-03T12:10:36.249Z,15.50
2019-02-03T12:13:06.442Z,15.30
2019-02-03T12:15:35.459Z,14.30
2019-02-03T12:18:04.832Z,13.20
2019-02-03T12:20:35.156Z,12.30
2019-02-03T12:23:06.409Z,12.70
2019-02-03T12:25:43.000Z,14.10
2019-02-03T12:28:11.792Z,15.10
2019-02-03T12:30:40.540Z,15.50
2019-02-03T12:33:09.354Z,16.50
2019-02-03T12:35:37.964Z,17.30
2019-02-03T12:38:06.718Z,17.90
2019-02-03T12:40:37.921Z,18.20
2019-02-03T12:43:06.982Z,18.20
2019-02-03T12:45:35.962Z,18.20
2019-02-03T12:48:06.223Z,18.40
2019-02-03T12:50:34.921Z,19.10
2019-02-03T12:53:05.058Z,20.00
2019-02-03T12:55:33.786Z,20.10
2019-02-03T12:58:02.495Z,19.90
2019-02-03T13:00:36.442Z,20.20
2019-02-03T13:03:07.117Z,19.90
2019-02-03T13:05:35.698Z,18.60
2019-02-03T13:08:05.252Z,17.30
2019-02-03T13:10:40.772Z,16.50
2019-02-03T13:13:09.673Z,16.60
2019-02-03T13:15:48.804Z,16.90
2019-02-03T13:18:17.118Z,16.60
2019-02-03T13:20:46.001Z,15.80
2019-02-03T13:23:16.238Z,16.40
2019-02-03T13:25:45.184Z,16.30
2019-02-03T13:28:14.069Z,15.40
2019-02-03T13:30:47.966Z,15.30
2019-02-03T13:33:17.243Z,15.30
2019-02-03T13:35:46.094Z,14.80
2019-02-03T13:38:14.978Z,13.80
2019-02-03T13:40:43.655Z,13.00
2019-02-03T13:43:12.258Z,12.10
2019-02-03T13:45:41.657Z,11.80
2019-02-03T13:48:10.689Z,11.90
2019-02-03T13:50:39.649Z,12.50
2019-02-03T13:53:08.501Z,12.00
2019-02-03T13:55:37.013Z,11.30
2019-02-03T13:58:05.876Z,10.90
2019-02-03T14:00:37.438Z,10.50
2019-02-03T14:03:06.133Z,10.10
2019-02-03T14:05:34.971Z,9.80
2019-02-03T14:08:03.827Z,9.60
2019-02-03T14:10:35.734Z,9.50
2019-02-03T14:13:06.212Z,9.40
2019-02-03T14:15:37.846Z,9.30
2019-02-03T14:18:06.902Z,9.30
2019-02-03T14:20:36.524Z,9.20
2019-02-03T14:23:05.381Z,9.10
2019-02-03T14:25:33.901Z,9.00
2019-02-03T14:28:02.504Z,8.90
2019-02-03T14:30:40.266Z,8.90
2019-02-03T14:33:06.882Z,8.90
2019-02-03T14:35:36.030Z,9.00
2019-02-03T14:38:06.250Z,9.10
2019-02-03T14:40:35.397Z,9.30
2019-02-03T14:43:04.893Z,9.60
2019-02-03T14:45:34.925Z,9.80
2019-02-03T14:48:03.951Z,10.20
2019-02-03T14:50:32.891Z,10.60
2019-02-03T14:53:04.835Z,11.40
2019-02-03T14:55:36.849Z,12.10
2019-02-03T14:58:06.263Z,12.60
2019-02-03T15:00:46.515Z,13.10
2019-02-03T15:03:17.069Z,12.60
2019-02-03T15:05:45.721Z,11.80
2019-02-03T15:08:14.533Z,11.00
2019-02-03T15:10:43.227Z,10.40
2019-02-03T15:13:14.981Z,9.80
2019-02-03T15:15:42.050Z,9.40
2019-02-03T15:18:10.508Z,9.10
2019-02-03T15:20:39.423Z,8.80
2019-02-03T15:23:08.103Z,8.60
2019-02-03T15:25:38.636Z,8.30
2019-02-03T15:28:10.540Z,8.20
2019-02-03T15:30:42.148Z,8.10
2019-02-03T15:33:12.461Z,8.00
2019-02-03T15:35:40.974Z,7.80
2019-02-03T15:38:09.946Z,7.70
2019-02-03T15:40:39.652Z,7.50
2019-02-03T15:43:11.264Z,7.40
2019-02-03T15:45:39.824Z,7.30
2019-02-03T15:48:08.744Z,7.20
2019-02-03T15:50:37.598Z,7.20
2019-02-03T15:53:08.313Z,7.10
2019-02-03T15:55:39.400Z,7.00
2019-02-03T15:58:10.746Z,6.90
2019-02-03T16:00:42.401Z,6.80
2019-02-03T16:03:11.551Z,6.70
2019-02-03T16:05:40.226Z,6.70
2019-02-03T16:08:10.225Z,6.60
2019-02-03T16:10:39.079Z,6.50
2019-02-03T16:13:08.290Z,6.40
2019-02-03T16:15:36.904Z,6.40
2019-02-03T16:18:06.359Z,6.30
2019-02-03T16:20:35.268Z,6.20
2019-02-03T16:23:06.671Z,6.10
2019-02-03T16:25:41.073Z,6.10
2019-02-03T16:28:06.143Z,6.00
2019-02-03T16:30:39.191Z,6.00
2019-02-03T16:33:10.350Z,6.00
2019-02-03T16:35:39.193Z,6.00
2019-02-03T16:38:08.816Z,6.00
2019-02-03T16:40:37.549Z,6.00
2019-02-03T16:43:07.105Z,6.00
2019-02-03T16:45:36.309Z,6.00
2019-02-03T16:48:05.935Z,6.00
2019-02-03T16:50:34.810Z,6.00
2019-02-03T16:53:04.837Z,5.90
2019-02-03T16:55:35.067Z,5.80
2019-02-03T16:58:04.084Z,5.70
2019-02-03T17:00:35.059Z,5.70
2019-02-03T17:03:05.129Z,5.60
2019-02-03T17:05:33.969Z,5.50
2019-02-03T17:08:03.710Z,5.50
2019-02-03T17:10:32.196Z,5.50
2019-02-03T17:13:00.744Z,5.40
2019-02-03T17:15:44.243Z,5.30
2019-02-03T17:18:13.683Z,5.30
2019-02-03T17:20:42.523Z,5.30
2019-02-03T17:23:11.143Z,5.30
2019-02-03T17:25:45.569Z,5.20
2019-02-03T17:28:14.527Z,5.10
2019-02-03T17:30:46.031Z,5.10
2019-02-03T17:33:14.477Z,5.00
2019-02-03T17:35:54.092Z,4.90
2019-02-03T17:38:13.613Z,4.90
2019-02-03T17:40:42.226Z,4.80
2019-02-03T17:43:11.161Z,4.70
2019-02-03T17:45:41.772Z,4.60
2019-02-03T17:48:10.315Z,4.50
2019-02-03T17:50:40.485Z,4.40
2019-02-03T17:53:09.041Z,4.30
2019-02-03T17:55:38.576Z,4.30
2019-02-03T17:58:07.417Z,4.20
2019-02-03T18:00:37.811Z,4.10
2019-02-03T18:03:07.463Z,4.10
2019-02-03T18:05:36.076Z,4.10
2019-02-03T18:08:06.628Z,4.00
2019-02-03T18:10:35.784Z,3.90
2019-02-03T18:13:05.703Z,3.90
2019-02-03T18:15:34.340Z,3.90
2019-02-03T18:18:02.905Z,3.80
2019-02-03T18:20:31.482Z,3.80
2019-02-03T18:23:00.170Z,3.70
2019-02-03T18:25:31.591Z,3.70
2019-02-03T18:27:59.910Z,3.70
2019-02-03T18:30:30.893Z,3.60
2019-02-03T18:33:00.784Z,3.50
2019-02-03T18:35:29.361Z,3.50
2019-02-03T18:38:04.086Z,3.50
2019-02-03T18:40:32.582Z,3.40
2019-02-03T18:43:02.100Z,3.40
2019-02-03T18:45:31.022Z,3.40
2019-02-03T18:47:59.762Z,3.30
2019-02-03T18:50:28.273Z,3.30
2019-02-03T18:52:56.870Z,3.30
2019-02-03T18:55:31.371Z,3.20
2019-02-03T18:58:00.301Z,3.20
2019-02-03T19:00:33.621Z,3.10
2019-02-03T19:03:08.328Z,3.10
2019-02-03T19:05:44.107Z,3.10
2019-02-03T19:08:12.741Z,3.10
2019-02-03T19:10:42.616Z,3.00
2019-02-03T19:13:11.222Z,3.00
2019-02-03T19:15:40.531Z,2.90
2019-02-03T19:18:09.474Z,2.90
2019-02-03T19:20:40.624Z,2.90
2019-02-03T19:23:10.312Z,2.90
2019-02-03T19:25:38.909Z,2.80
2019-02-03T19:28:07.380Z,2.80
2019-02-03T19:30:36.214Z,2.80
2019-02-03T19:33:05.608Z,2.90
2019-02-03T19:35:35.533Z,2.90
2019-02-03T19:38:06.880Z,2.90
2019-02-03T19:40:35.260Z,2.80
2019-02-03T19:43:04.215Z,2.80
2019-02-03T19:45:33.618Z,2.80
2019-02-03T19:48:02.232Z,2.70
2019-02-03T19:50:36.892Z,2.70
2019-02-03T19:53:06.896Z,2.70
2019-02-03T19:55:35.424Z,2.60
2019-02-03T19:58:06.774Z,2.60
2019-02-03T20:00:43.305Z,2.60
2019-02-03T20:03:12.357Z,2.60
2019-02-03T20:05:42.958Z,2.60
2019-02-03T20:08:11.261Z,2.50
2019-02-03T20:10:39.884Z,2.50
2019-02-03T20:13:08.689Z,2.50
2019-02-03T20:15:37.770Z,2.40
2019-02-03T20:18:06.795Z,2.40
2019-02-03T20:20:39.989Z,2.30
2019-02-03T20:23:09.145Z,2.30
2019-02-03T20:25:37.723Z,2.30
2019-02-03T20:28:07.917Z,2.20
2019-02-03T20:30:39.184Z,2.20
2019-02-03T20:33:08.067Z,2.20
2019-02-03T20:35:36.654Z,2.10
2019-02-03T20:38:06.651Z,2.10
2019-02-03T20:40:40.184Z,2.10
2019-02-03T20:43:08.634Z,2.10
2019-02-03T20:45:48.416Z,2.00
2019-02-03T20:48:10.686Z,2.00
2019-02-03T20:50:38.108Z,2.00
2019-02-03T20:53:06.693Z,2.00
2019-02-03T20:55:35.339Z,2.00
2019-02-03T20:58:04.011Z,2.00
2019-02-03T21:00:37.643Z,1.90
2019-02-03T21:03:07.028Z,1.90
2019-02-03T21:05:35.913Z,1.90
2019-02-03T21:08:05.609Z,1.90
2019-02-03T21:10:34.065Z,1.90
2019-02-03T21:13:10.765Z,1.80
2019-02-03T21:15:34.279Z,1.80
2019-02-03T21:18:02.934Z,1.80
2019-02-03T21:20:33.395Z,1.70
2019-02-03T21:23:02.808Z,1.70
2019-02-03T21:25:31.677Z,1.60
2019-02-03T21:28:00.341Z,1.60
2019-02-03T21:30:31.603Z,1.60
2019-02-03T21:33:00.961Z,1.50
2019-02-03T21:35:29.942Z,1.50
2019-02-03T21:37:58.483Z,1.50
2019-02-03T21:40:32.693Z,1.40
2019-02-03T21:43:01.664Z,1.40
2019-02-03T21:45:31.721Z,1.40
2019-02-03T21:48:00.241Z,1.30
2019-02-03T21:50:30.735Z,1.30
2019-02-03T21:52:59.673Z,1.30
2019-02-03T21:55:28.461Z,1.20
2019-02-03T21:57:57.206Z,1.20
2019-02-03T22:00:31.275Z,1.20
2019-02-03T22:03:00.284Z,1.20
2019-02-03T22:05:30.105Z,1.10
2019-02-03T22:07:59.521Z,1.10
2019-02-03T22:10:33.279Z,1.10
2019-02-03T22:13:03.232Z,1.00
2019-02-03T22:15:32.501Z,1.00
2019-02-03T22:18:01.405Z,1.00
2019-02-03T22:20:30.041Z,1.00
2019-02-03T22:23:00.731Z,0.90
2019-02-03T22:25:29.637Z,0.90
2019-02-03T22:27:58.445Z,0.90
2019-02-03T22:30:29.930Z,0.90
2019-02-03T22:32:59.463Z,0.90
2019-02-03T22:35:29.273Z,0.90
2019-02-03T22:37:58.008Z,0.90
2019-02-03T22:40:27.333Z,0.90
2019-02-03T22:43:00.763Z,0.90
2019-02-03T22:45:29.290Z,0.90
2019-02-03T22:47:58.456Z,0.90
2019-02-03T22:50:30.007Z,0.80
2019-02-03T22:52:59.400Z,0.90
2019-02-03T22:55:28.397Z,0.80
2019-02-03T22:57:56.992Z,0.80
2019-02-03T23:00:52.042Z,0.80
2019-02-03T23:03:32.452Z,0.80
2019-02-03T23:06:02.533Z,0.80
2019-02-03T23:08:31.087Z,0.80
2019-02-03T23:10:59.618Z,0.80
2019-02-03T23:13:28.070Z,0.80
2019-02-03T23:15:56.869Z,0.70
2019-02-03T23:18:25.738Z,0.80
2019-02-03T23:20:54.370Z,0.80
2019-02-03T23:23:26.605Z,0.70
2019-02-03T23:25:55.187Z,0.70
2019-02-03T23:28:24.393Z,0.70
2019-02-03T23:30:52.991Z,0.70
2019-02-03T23:33:21.541Z,0.70
2019-02-03T23:35:50.351Z,0.70
2019-02-03T23:38:19.161Z,0.70
2019-02-03T23:40:48.020Z,0.70
2019-02-03T23:43:16.976Z,0.70
2019-02-03T23:45:45.521Z,0.70
2019-02-03T23:48:14.331Z,0.70
2019-02-03T23:50:44.071Z,0.70
2019-02-03T23:53:13.735Z,0.70
2019-02-03T23:55:42.725Z,0.70
2019-02-03T23:58:13.123Z,0.60
